createdAt,value
2023-05-17T00:00:10.641Z,91.15
2023-05-17T00:05:34.807Z,91.00
2023-05-17T00:10:57.200Z,91.00
2023-05-17T00:16:19.976Z,90.96
2023-05-17T00:21:42.423Z,90.91
2023-05-17T00:27:04.902Z,91.03
2023-05-17T00:32:27.311Z,91.38
2023-05-17T00:37:51.067Z,91.80
2023-05-17T00:43:13.369Z,92.12
2023-05-17T00:48:36.026Z,92.36
2023-05-17T00:53:58.702Z,92.42
2023-05-17T00:59:23.140Z,92.54
2023-05-17T01:04:45.526Z,92.45
2023-05-17T01:10:08.971Z,92.44
2023-05-17T01:15:41.619Z,92.51
2023-05-17T01:21:06.122Z,92.53
2023-05-17T01:26:47.102Z,92.36
2023-05-17T01:32:10.557Z,92.02
2023-05-17T01:37:32.952Z,91.71
2023-05-17T01:42:59.471Z,91.48
2023-05-17T01:48:43.922Z,91.43
2023-05-17T01:54:12.355Z,91.41
2023-05-17T01:59:37.658Z,91.32
2023-05-17T02:05:00.263Z,91.10
2023-05-17T02:10:23.480Z,90.96
2023-05-17T02:15:45.772Z,90.94
2023-05-17T02:21:08.042Z,90.92
2023-05-17T02:26:30.430Z,90.79
2023-05-17T02:31:52.789Z,90.70
2023-05-17T02:37:15.270Z,90.62
2023-05-17T02:42:38.559Z,90.35
2023-05-17T02:48:00.881Z,90.08
2023-05-17T02:53:23.376Z,89.76
2023-05-17T02:58:45.783Z,89.21
2023-05-17T03:04:08.837Z,88.61
2023-05-17T03:09:32.037Z,87.76
2023-05-17T03:14:54.910Z,86.79
2023-05-17T03:20:19.081Z,85.72
2023-05-17T03:25:41.474Z,84.90
2023-05-17T03:31:03.982Z,84.41
2023-05-17T03:36:27.233Z,83.25
2023-05-17T03:41:50.231Z,81.23
2023-05-17T03:47:12.707Z,79.28
2023-05-17T03:52:35.098Z,77.80
2023-05-17T03:57:57.408Z,76.93
2023-05-17T04:03:20.339Z,76.69
2023-05-17T04:08:43.397Z,76.80
2023-05-17T04:14:06.588Z,76.41
2023-05-17T04:19:29.472Z,76.08
2023-05-17T04:24:52.247Z,75.73
2023-05-17T04:30:15.076Z,75.57
2023-05-17T04:35:37.959Z,75.34
2023-05-17T04:41:00.203Z,74.86
2023-05-17T04:46:22.687Z,74.56
2023-05-17T04:51:44.997Z,74.54
2023-05-17T04:57:07.339Z,74.62
2023-05-17T05:02:29.734Z,74.80
2023-05-17T05:07:52.300Z,74.43
2023-05-17T05:13:14.587Z,74.41
2023-05-17T05:18:37.517Z,74.35
2023-05-17T05:24:00.259Z,74.32
2023-05-17T05:29:22.541Z,74.54
2023-05-17T05:34:45.106Z,74.25
2023-05-17T05:40:07.447Z,74.23
2023-05-17T05:45:30.056Z,74.50
2023-05-17T05:50:55.418Z,74.47
2023-05-17T05:56:17.961Z,74.39
2023-05-17T06:01:41.630Z,73.89
2023-05-17T06:07:04.065Z,73.35
2023-05-17T06:12:26.450Z,73.06
2023-05-17T06:17:48.891Z,72.62
2023-05-17T06:23:12.073Z,71.90
2023-05-17T06:28:34.511Z,70.87
2023-05-17T06:33:57.030Z,69.90
2023-05-17T06:39:19.522Z,69.55
2023-05-17T06:44:42.178Z,68.60
2023-05-17T06:50:05.505Z,67.85
2023-05-17T06:55:29.570Z,67.52
2023-05-17T07:00:52.033Z,67.44
2023-05-17T07:06:14.769Z,67.05
2023-05-17T07:11:37.393Z,65.55
2023-05-17T07:16:59.761Z,63.94
2023-05-17T07:22:23.021Z,63.32
2023-05-17T07:27:50.635Z,61.98
2023-05-17T07:33:13.137Z,61.33
2023-05-17T07:38:38.993Z,59.76
2023-05-17T07:44:02.147Z,59.45
2023-05-17T07:49:24.527Z,59.55
2023-05-17T07:54:48.017Z,59.48
2023-05-17T08:00:12.220Z,59.58
2023-05-17T08:05:34.750Z,60.89
2023-05-17T08:10:57.349Z,61.04
2023-05-17T08:16:20.553Z,60.20
2023-05-17T08:21:43.526Z,60.19
2023-05-17T08:27:05.824Z,59.26
2023-05-17T08:32:29.198Z,59.07
2023-05-17T08:37:51.701Z,57.51
2023-05-17T08:43:16.254Z,56.55
2023-05-17T08:48:42.551Z,55.40
2023-05-17T08:54:07.552Z,55.79
2023-05-17T08:59:32.967Z,56.79
2023-05-17T09:04:56.706Z,56.74
2023-05-17T09:10:19.668Z,57.66
2023-05-17T09:15:44.273Z,58.11
2023-05-17T09:21:11.999Z,57.76
2023-05-17T09:26:45.932Z,55.70
2023-05-17T09:32:20.817Z,53.87
2023-05-17T09:37:46.197Z,53.46
2023-05-17T09:43:09.346Z,55.33
2023-05-17T09:48:38.956Z,55.31
2023-05-17T09:54:14.456Z,53.69
2023-05-17T09:59:39.596Z,55.53
2023-05-17T10:05:05.352Z,57.44
2023-05-17T10:10:29.938Z,56.90
2023-05-17T10:15:53.835Z,55.35
2023-05-17T10:21:20.144Z,52.50
2023-05-17T10:26:43.058Z,52.52
2023-05-17T10:32:07.732Z,53.79
2023-05-17T10:37:32.496Z,53.99
2023-05-17T10:42:57.123Z,54.00
2023-05-17T10:48:22.643Z,54.27
2023-05-17T10:53:53.028Z,53.26
2023-05-17T10:59:45.345Z,48.50
2023-05-17T11:05:10.606Z,49.38
2023-05-17T11:10:33.439Z,51.11
2023-05-17T11:16:12.640Z,51.28
2023-05-17T11:21:36.946Z,51.39
2023-05-17T11:27:00.571Z,51.38
2023-05-17T11:32:24.749Z,49.20
2023-05-17T11:37:49.917Z,46.72
2023-05-17T11:43:35.587Z,47.18
2023-05-17T11:48:59.736Z,44.88
2023-05-17T11:54:22.319Z,45.02
2023-05-17T11:59:46.700Z,44.23
2023-05-17T12:05:09.858Z,44.29
2023-05-17T12:10:34.786Z,43.94
2023-05-17T12:16:01.762Z,44.34
2023-05-17T12:21:28.574Z,43.91
2023-05-17T12:26:58.681Z,42.43
2023-05-17T12:32:15.016Z,44.48
2023-05-17T12:37:37.506Z,44.52
2023-05-17T12:43:01.778Z,43.41
2023-05-17T12:48:24.462Z,44.61
2023-05-17T12:53:50.837Z,44.94
2023-05-17T12:59:34.321Z,45.07
2023-05-17T13:04:56.755Z,42.56
2023-05-17T13:10:28.826Z,41.86
2023-05-17T13:16:03.479Z,41.19
2023-05-17T13:21:26.217Z,40.99
2023-05-17T13:26:48.675Z,41.20
2023-05-17T13:32:12.218Z,40.62
2023-05-17T13:37:34.694Z,41.15
2023-05-17T13:42:57.303Z,42.68
2023-05-17T13:48:20.254Z,43.43
2023-05-17T13:53:44.577Z,41.37
2023-05-17T13:59:07.727Z,39.83
2023-05-17T14:04:30.494Z,39.65
2023-05-17T14:09:53.676Z,40.92
2023-05-17T14:15:18.245Z,42.48
2023-05-17T14:20:40.930Z,43.07
2023-05-17T14:26:05.706Z,43.12
2023-05-17T14:31:30.486Z,43.87
2023-05-17T14:36:52.933Z,43.30
2023-05-17T14:42:15.755Z,43.24
2023-05-17T14:47:39.414Z,43.74
2023-05-17T14:53:02.158Z,44.38
2023-05-17T14:58:24.792Z,44.86
2023-05-17T15:03:47.595Z,45.00
2023-05-17T15:09:12.467Z,45.00
2023-05-17T15:14:36.702Z,44.22
2023-05-17T15:20:00.409Z,44.15
2023-05-17T15:25:23.539Z,44.00
2023-05-17T15:30:46.474Z,43.33
2023-05-17T15:36:11.257Z,44.28
2023-05-17T15:41:37.696Z,44.86
2023-05-17T15:47:02.918Z,45.64
2023-05-17T15:52:24.310Z,46.78
2023-05-17T15:57:49.469Z,46.94
2023-05-17T16:03:11.892Z,46.78
2023-05-17T16:08:34.503Z,45.89
2023-05-17T16:13:57.755Z,45.56
2023-05-17T16:19:20.337Z,45.16
